sensor_id;sensor_type;location;lat;lon;timestamp;P1;durP1;ratioP1;P2;durP2;ratioP2
25083;SDS011;13075;55.682;37.564;2022-08-11T00:01:44;4.65;;;1.65;;
25083;SDS011;13075;55.682;37.564;2022-08-11T00:04:11;1.95;;;1.20;;
25083;SDS011;13075;55.682;37.564;2022-08-11T00:06:38;7.57;;;1.42;;
25083;SDS011;13075;55.682;37.564;2022-08-11T00:09:08;3.85;;;1.50;;
25083;SDS011;13075;55.682;37.564;2022-08-11T00:11:38;2.00;;;1.40;;
25083;SDS011;13075;55.682;37.564;2022-08-11T00:14:12;1.55;;;1.30;;
25083;SDS011;13075;55.682;37.564;2022-08-11T00:16:44;3.25;;;1.10;;
25083;SDS011;13075;55.682;37.564;2022-08-11T00:19:36;2.65;;;1.40;;
25083;SDS011;13075;55.682;37.564;2022-08-11T00:22:03;3.38;;;1.30;;
25083;SDS011;13075;55.682;37.564;2022-08-11T00:24:34;1.80;;;1.60;;
25083;SDS011;13075;55.682;37.564;2022-08-11T00:27:02;3.67;;;1.60;;
25083;SDS011;13075;55.682;37.564;2022-08-11T00:29:30;1.70;;;1.42;;
25083;SDS011;13075;55.682;37.564;2022-08-11T00:31:57;4.95;;;1.92;;
25083;SDS011;13075;55.682;37.564;2022-08-11T00:34:31;2.25;;;1.65;;
25083;SDS011;13075;55.682;37.564;2022-08-11T00:37:03;4.00;;;1.23;;
25083;SDS011;13075;55.682;37.564;2022-08-11T00:39:34;3.05;;;1.88;;
25083;SDS011;13075;55.682;37.564;2022-08-11T01:01:56;2.88;;;1.95;;
25083;SDS011;13075;55.682;37.564;2022-08-11T01:30:24;4.78;;;1.75;;
25083;SDS011;13075;55.682;37.564;2022-08-11T01:56:28;2.88;;;1.42;;
25083;SDS011;13075;55.682;37.564;2022-08-11T01:59:17;3.25;;;1.35;;
25083;SDS011;13075;55.682;37.564;2022-08-11T02:07:58;3.00;;;1.20;;
25083;SDS011;13075;55.682;37.564;2022-08-11T02:16:38;3.15;;;2.05;;
25083;SDS011;13075;55.682;37.564;2022-08-11T02:25:51;1.60;;;1.27;;
25083;SDS011;13075;55.682;37.564;2022-08-11T02:34:19;2.40;;;1.98;;
25083;SDS011;13075;55.682;37.564;2022-08-11T02:48:07;1.65;;;1.50;;
25083;SDS011;13075;55.682;37.564;2022-08-11T02:54:07;5.05;;;1.67;;
25083;SDS011;13075;55.682;37.564;2022-08-11T02:59:44;2.97;;;2.50;;
25083;SDS011;13075;55.682;37.564;2022-08-11T03:07:27;2.58;;;1.42;;
25083;SDS011;13075;55.682;37.564;2022-08-11T03:12:46;4.85;;;1.77;;
25083;SDS011;13075;55.682;37.564;2022-08-11T03:15:56;1.80;;;1.45;;
25083;SDS011;13075;55.682;37.564;2022-08-11T03:21:40;3.35;;;1.70;;
25083;SDS011;13075;55.682;37.564;2022-08-11T03:24:20;6.75;;;1.70;;
25083;SDS011;13075;55.682;37.564;2022-08-11T03:34:53;4.03;;;1.17;;
25083;SDS011;13075;55.682;37.564;2022-08-11T03:37:26;5.97;;;2.00;;
25083;SDS011;13075;55.682;37.564;2022-08-11T03:43:27;4.40;;;2.00;;
25083;SDS011;13075;55.682;37.564;2022-08-11T03:51:24;3.13;;;1.70;;
25083;SDS011;13075;55.682;37.564;2022-08-11T04:21:50;4.40;;;2.08;;
25083;SDS011;13075;55.682;37.564;2022-08-11T04:30:16;4.97;;;2.55;;
25083;SDS011;13075;55.682;37.564;2022-08-11T04:39:14;7.22;;;2.53;;
25083;SDS011;13075;55.682;37.564;2022-08-11T04:56:50;6.43;;;2.40;;
25083;SDS011;13075;55.682;37.564;2022-08-11T05:16:57;10.73;;;3.45;;
25083;SDS011;13075;55.682;37.564;2022-08-11T05:19:46;5.68;;;2.38;;
25083;SDS011;13075;55.682;37.564;2022-08-11T05:22:32;5.88;;;2.15;;
25083;SDS011;13075;55.682;37.564;2022-08-11T05:25:19;5.57;;;2.33;;
25083;SDS011;13075;55.682;37.564;2022-08-11T05:28:11;8.38;;;3.13;;
25083;SDS011;13075;55.682;37.564;2022-08-11T05:31:09;7.88;;;3.22;;
25083;SDS011;13075;55.682;37.564;2022-08-11T05:34:07;5.40;;;2.20;;
25083;SDS011;13075;55.682;37.564;2022-08-11T05:37:30;5.70;;;2.65;;
25083;SDS011;13075;55.682;37.564;2022-08-11T05:39:50;4.55;;;2.47;;
25083;SDS011;13075;55.682;37.564;2022-08-11T05:42:41;3.53;;;2.30;;
25083;SDS011;13075;55.682;37.564;2022-08-11T05:45:26;5.95;;;2.55;;
25083;SDS011;13075;55.682;37.564;2022-08-11T05:48:11;8.25;;;2.97;;
25083;SDS011;13075;55.682;37.564;2022-08-11T05:50:57;6.40;;;2.20;;
25083;SDS011;13075;55.682;37.564;2022-08-11T05:53:54;3.42;;;2.80;;
25083;SDS011;13075;55.682;37.564;2022-08-11T05:56:50;2.05;;;1.85;;
25083;SDS011;13075;55.682;37.564;2022-08-11T05:59:19;8.70;;;2.78;;
25083;SDS011;13075;55.682;37.564;2022-08-11T06:01:47;5.97;;;2.40;;
25083;SDS011;13075;55.682;37.564;2022-08-11T06:04:15;6.72;;;2.25;;
25083;SDS011;13075;55.682;37.564;2022-08-11T06:06:49;4.57;;;2.67;;
25083;SDS011;13075;55.682;37.564;2022-08-11T06:09:32;11.88;;;2.55;;
25083;SDS011;13075;55.682;37.564;2022-08-11T06:12:04;9.35;;;4.70;;
25083;SDS011;13075;55.682;37.564;2022-08-11T06:14:33;8.18;;;3.10;;
25083;SDS011;13075;55.682;37.564;2022-08-11T06:17:07;6.07;;;3.45;;
25083;SDS011;13075;55.682;37.564;2022-08-11T06:19:34;16.15;;;3.03;;
25083;SDS011;13075;55.682;37.564;2022-08-11T06:22:04;6.70;;;2.22;;
25083;SDS011;13075;55.682;37.564;2022-08-11T06:24:33;5.00;;;2.10;;
25083;SDS011;13075;55.682;37.564;2022-08-11T06:27:00;3.30;;;2.70;;
25083;SDS011;13075;55.682;37.564;2022-08-11T06:29:30;7.47;;;2.83;;
25083;SDS011;13075;55.682;37.564;2022-08-11T06:31:59;8.95;;;2.17;;
25083;SDS011;13075;55.682;37.564;2022-08-11T06:40:07;3.70;;;2.03;;
25083;SDS011;13075;55.682;37.564;2022-08-11T06:42:39;3.83;;;1.80;;
25083;SDS011;13075;55.682;37.564;2022-08-11T06:45:18;6.07;;;2.30;;
25083;SDS011;13075;55.682;37.564;2022-08-11T06:47:48;8.35;;;2.13;;
25083;SDS011;13075;55.682;37.564;2022-08-11T06:50:15;15.50;;;2.33;;
25083;SDS011;13075;55.682;37.564;2022-08-11T06:53:02;7.28;;;2.35;;
25083;SDS011;13075;55.682;37.564;2022-08-11T06:55:30;4.28;;;2.60;;
25083;SDS011;13075;55.682;37.564;2022-08-11T06:58:17;9.20;;;4.15;;
25083;SDS011;13075;55.682;37.564;2022-08-11T07:01:10;5.40;;;1.90;;
25083;SDS011;13075;55.682;37.564;2022-08-11T07:03:39;6.88;;;2.35;;
25083;SDS011;13075;55.682;37.564;2022-08-11T07:06:30;5.70;;;3.47;;
25083;SDS011;13075;55.682;37.564;2022-08-11T07:09:17;6.88;;;2.45;;
25083;SDS011;13075;55.682;37.564;2022-08-11T07:15:22;8.30;;;2.47;;
25083;SDS011;13075;55.682;37.564;2022-08-11T07:18:11;7.25;;;2.95;;
25083;SDS011;13075;55.682;37.564;2022-08-11T07:21:19;6.90;;;2.75;;
25083;SDS011;13075;55.682;37.564;2022-08-11T07:24:16;8.18;;;3.35;;
25083;SDS011;13075;55.682;37.564;2022-08-11T07:27:03;9.88;;;2.47;;
25083;SDS011;13075;55.682;37.564;2022-08-11T07:29:59;8.00;;;2.53;;
25083;SDS011;13075;55.682;37.564;2022-08-11T07:35:01;7.28;;;2.13;;
25083;SDS011;13075;55.682;37.564;2022-08-11T07:37:33;8.02;;;1.80;;
25083;SDS011;13075;55.682;37.564;2022-08-11T07:39:59;4.43;;;1.63;;
25083;SDS011;13075;55.682;37.564;2022-08-11T07:42:31;3.97;;;2.78;;
25083;SDS011;13075;55.682;37.564;2022-08-11T07:45:02;6.07;;;2.00;;
25083;SDS011;13075;55.682;37.564;2022-08-11T07:47:50;8.55;;;1.85;;
25083;SDS011;13075;55.682;37.564;2022-08-11T07:50:40;8.23;;;1.90;;
25083;SDS011;13075;55.682;37.564;2022-08-11T07:53:27;11.68;;;2.85;;
25083;SDS011;13075;55.682;37.564;2022-08-11T07:55:55;3.83;;;1.77;;
25083;SDS011;13075;55.682;37.564;2022-08-11T07:58:23;3.97;;;1.90;;
25083;SDS011;13075;55.682;37.564;2022-08-11T08:01:08;2.38;;;1.50;;
25083;SDS011;13075;55.682;37.564;2022-08-11T08:03:54;1.95;;;1.73;;
25083;SDS011;13075;55.682;37.564;2022-08-11T08:06:41;5.35;;;2.45;;
25083;SDS011;13075;55.682;37.564;2022-08-11T08:09:27;1.95;;;1.80;;
25083;SDS011;13075;55.682;37.564;2022-08-11T08:12:16;4.82;;;1.60;;
25083;SDS011;13075;55.682;37.564;2022-08-11T08:15:07;1.95;;;1.70;;
25083;SDS011;13075;55.682;37.564;2022-08-11T08:17:54;2.30;;;1.67;;
25083;SDS011;13075;55.682;37.564;2022-08-11T08:20:23;7.15;;;1.73;;
25083;SDS011;13075;55.682;37.564;2022-08-11T08:22:52;4.38;;;1.70;;
25083;SDS011;13075;55.682;37.564;2022-08-11T08:25:54;4.45;;;1.67;;
25083;SDS011;13075;55.682;37.564;2022-08-11T08:28:16;3.80;;;1.95;;
25083;SDS011;13075;55.682;37.564;2022-08-11T08:30:44;2.33;;;1.73;;
25083;SDS011;13075;55.682;37.564;2022-08-11T08:33:25;4.88;;;3.80;;
25083;SDS011;13075;55.682;37.564;2022-08-11T08:35:57;3.45;;;1.48;;
25083;SDS011;13075;55.682;37.564;2022-08-11T08:38:40;6.45;;;1.83;;
25083;SDS011;13075;55.682;37.564;2022-08-11T08:41:07;3.60;;;1.70;;
25083;SDS011;13075;55.682;37.564;2022-08-11T08:43:34;3.70;;;1.75;;
25083;SDS011;13075;55.682;37.564;2022-08-11T08:46:01;3.08;;;1.65;;
25083;SDS011;13075;55.682;37.564;2022-08-11T08:48:33;2.30;;;1.58;;
25083;SDS011;13075;55.682;37.564;2022-08-11T08:51:03;12.45;;;1.90;;
25083;SDS011;13075;55.682;37.564;2022-08-11T08:53:54;4.07;;;1.75;;
25083;SDS011;13075;55.682;37.564;2022-08-11T08:56:27;5.28;;;1.83;;
25083;SDS011;13075;55.682;37.564;2022-08-11T08:58:54;4.18;;;1.80;;
25083;SDS011;13075;55.682;37.564;2022-08-11T09:01:23;3.75;;;1.80;;
25083;SDS011;13075;55.682;37.564;2022-08-11T09:03:53;3.85;;;1.48;;
25083;SDS011;13075;55.682;37.564;2022-08-11T09:06:19;2.65;;;1.73;;
25083;SDS011;13075;55.682;37.564;2022-08-11T09:08:44;3.63;;;2.17;;
25083;SDS011;13075;55.682;37.564;2022-08-11T09:11:11;4.70;;;1.92;;
25083;SDS011;13075;55.682;37.564;2022-08-11T09:13:57;3.30;;;1.88;;
25083;SDS011;13075;55.682;37.564;2022-08-11T09:16:25;5.80;;;2.10;;
25083;SDS011;13075;55.682;37.564;2022-08-11T09:18:51;2.55;;;2.10;;
25083;SDS011;13075;55.682;37.564;2022-08-11T09:21:17;3.35;;;2.13;;
25083;SDS011;13075;55.682;37.564;2022-08-11T09:23:47;8.00;;;2.30;;
25083;SDS011;13075;55.682;37.564;2022-08-11T09:26:34;2.83;;;2.20;;
25083;SDS011;13075;55.682;37.564;2022-08-11T09:29:20;5.25;;;2.10;;
25083;SDS011;13075;55.682;37.564;2022-08-11T09:31:46;3.92;;;2.42;;
25083;SDS011;13075;55.682;37.564;2022-08-11T09:34:13;8.70;;;2.25;;
25083;SDS011;13075;55.682;37.564;2022-08-11T09:36:40;5.20;;;2.10;;
25083;SDS011;13075;55.682;37.564;2022-08-11T09:39:46;4.30;;;2.05;;
25083;SDS011;13075;55.682;37.564;2022-08-11T09:42:30;2.90;;;1.83;;
25083;SDS011;13075;55.682;37.564;2022-08-11T09:45:15;1.58;;;1.30;;
25083;SDS011;13075;55.682;37.564;2022-08-11T09:47:41;11.68;;;3.80;;
25083;SDS011;13075;55.682;37.564;2022-08-11T09:50:09;5.25;;;1.85;;
25083;SDS011;13075;55.682;37.564;2022-08-11T09:52:37;1.55;;;1.38;;
25083;SDS011;13075;55.682;37.564;2022-08-11T09:55:05;3.35;;;2.78;;
25083;SDS011;13075;55.682;37.564;2022-08-11T09:57:37;9.18;;;6.45;;
25083;SDS011;13075;55.682;37.564;2022-08-11T10:02:55;2.65;;;1.85;;
25083;SDS011;13075;55.682;37.564;2022-08-11T10:05:22;3.97;;;1.92;;
25083;SDS011;13075;55.682;37.564;2022-08-11T10:08:08;5.75;;;1.40;;
25083;SDS011;13075;55.682;37.564;2022-08-11T10:10:37;2.92;;;1.55;;
25083;SDS011;13075;55.682;37.564;2022-08-11T10:13:04;3.15;;;1.60;;
25083;SDS011;13075;55.682;37.564;2022-08-11T10:15:33;4.63;;;2.10;;
25083;SDS011;13075;55.682;37.564;2022-08-11T10:18:07;5.63;;;2.13;;
25083;SDS011;13075;55.682;37.564;2022-08-11T10:20:57;4.97;;;2.42;;
25083;SDS011;13075;55.682;37.564;2022-08-11T10:23:30;4.50;;;1.83;;
25083;SDS011;13075;55.682;37.564;2022-08-11T10:26:17;7.10;;;2.10;;
25083;SDS011;13075;55.682;37.564;2022-08-11T10:29:02;4.05;;;1.75;;
25083;SDS011;13075;55.682;37.564;2022-08-11T10:31:50;4.10;;;2.05;;
25083;SDS011;13075;55.682;37.564;2022-08-11T10:34:36;7.03;;;2.15;;
25083;SDS011;13075;55.682;37.564;2022-08-11T10:37:02;6.40;;;1.95;;
25083;SDS011;13075;55.682;37.564;2022-08-11T10:39:31;2.15;;;1.55;;
25083;SDS011;13075;55.682;37.564;2022-08-11T10:41:58;5.38;;;1.75;;
25083;SDS011;13075;55.682;37.564;2022-08-11T10:44:44;1.58;;;1.48;;
25083;SDS011;13075;55.682;37.564;2022-08-11T10:47:12;3.40;;;1.85;;
25083;SDS011;13075;55.682;37.564;2022-08-11T10:49:58;3.17;;;1.38;;
25083;SDS011;13075;55.682;37.564;2022-08-11T10:53:01;2.83;;;1.88;;
25083;SDS011;13075;55.682;37.564;2022-08-11T10:55:45;2.30;;;1.77;;
25083;SDS011;13075;55.682;37.564;2022-08-11T10:58:30;4.47;;;3.70;;
25083;SDS011;13075;55.682;37.564;2022-08-11T11:03:54;4.63;;;1.80;;
25083;SDS011;13075;55.682;37.564;2022-08-11T11:09:48;5.17;;;2.53;;
25083;SDS011;13075;55.682;37.564;2022-08-11T11:15:29;4.78;;;2.10;;
25083;SDS011;13075;55.682;37.564;2022-08-11T11:18:19;4.00;;;2.20;;
25083;SDS011;13075;55.682;37.564;2022-08-11T11:20:57;3.40;;;2.15;;
25083;SDS011;13075;55.682;37.564;2022-08-11T11:29:56;2.33;;;2.10;;
25083;SDS011;13075;55.682;37.564;2022-08-11T11:32:32;4.53;;;1.90;;
25083;SDS011;13075;55.682;37.564;2022-08-11T11:37:40;2.83;;;1.75;;
25083;SDS011;13075;55.682;37.564;2022-08-11T11:40:10;4.88;;;2.13;;
25083;SDS011;13075;55.682;37.564;2022-08-11T11:42:41;3.28;;;2.03;;
25083;SDS011;13075;55.682;37.564;2022-08-11T11:45:10;2.40;;;1.90;;
25083;SDS011;13075;55.682;37.564;2022-08-11T11:47:40;6.60;;;2.15;;
25083;SDS011;13075;55.682;37.564;2022-08-11T11:50:06;2.30;;;2.10;;
25083;SDS011;13075;55.682;37.564;2022-08-11T11:52:32;4.22;;;2.00;;
25083;SDS011;13075;55.682;37.564;2022-08-11T11:54:59;3.42;;;1.95;;
25083;SDS011;13075;55.682;37.564;2022-08-11T11:57:26;5.30;;;2.33;;
25083;SDS011;13075;55.682;37.564;2022-08-11T12:00:11;2.25;;;1.65;;
25083;SDS011;13075;55.682;37.564;2022-08-11T12:03:00;3.10;;;2.00;;
25083;SDS011;13075;55.682;37.564;2022-08-11T12:05:27;9.27;;;2.28;;
25083;SDS011;13075;55.682;37.564;2022-08-11T12:07:57;5.53;;;1.98;;
25083;SDS011;13075;55.682;37.564;2022-08-11T12:13:10;2.35;;;2.15;;
25083;SDS011;13075;55.682;37.564;2022-08-11T12:15:55;6.93;;;2.88;;
25083;SDS011;13075;55.682;37.564;2022-08-11T12:18:25;6.75;;;2.15;;
25083;SDS011;13075;55.682;37.564;2022-08-11T12:20:51;8.05;;;2.58;;
25083;SDS011;13075;55.682;37.564;2022-08-11T12:23:17;3.50;;;2.25;;
25083;SDS011;13075;55.682;37.564;2022-08-11T12:26:18;11.90;;;6.20;;
25083;SDS011;13075;55.682;37.564;2022-08-11T12:29:04;16.65;;;10.57;;
25083;SDS011;13075;55.682;37.564;2022-08-11T12:31:32;6.07;;;2.40;;
25083;SDS011;13075;55.682;37.564;2022-08-11T12:34:02;2.60;;;2.08;;
25083;SDS011;13075;55.682;37.564;2022-08-11T12:36:31;5.75;;;2.35;;
25083;SDS011;13075;55.682;37.564;2022-08-11T12:39:00;12.35;;;2.55;;
25083;SDS011;13075;55.682;37.564;2022-08-11T12:41:29;9.93;;;2.92;;
25083;SDS011;13075;55.682;37.564;2022-08-11T12:44:26;6.05;;;3.20;;
25083;SDS011;13075;55.682;37.564;2022-08-11T12:47:12;4.03;;;2.13;;
25083;SDS011;13075;55.682;37.564;2022-08-11T12:49:46;3.10;;;2.50;;
25083;SDS011;13075;55.682;37.564;2022-08-11T12:52:35;7.78;;;2.70;;
25083;SDS011;13075;55.682;37.564;2022-08-11T12:55:15;2.75;;;2.20;;
25083;SDS011;13075;55.682;37.564;2022-08-11T12:58:03;5.35;;;2.88;;
25083;SDS011;13075;55.682;37.564;2022-08-11T13:00:44;4.82;;;2.42;;
25083;SDS011;13075;55.682;37.564;2022-08-11T13:03:29;3.92;;;2.17;;
25083;SDS011;13075;55.682;37.564;2022-08-11T13:06:16;2.28;;;2.08;;
25083;SDS011;13075;55.682;37.564;2022-08-11T13:08:44;3.05;;;2.30;;
25083;SDS011;13075;55.682;37.564;2022-08-11T13:11:11;7.50;;;2.50;;
25083;SDS011;13075;55.682;37.564;2022-08-11T13:13:59;3.85;;;3.33;;
25083;SDS011;13075;55.682;37.564;2022-08-11T13:16:32;5.88;;;2.33;;
25083;SDS011;13075;55.682;37.564;2022-08-11T13:19:20;8.10;;;3.75;;
25083;SDS011;13075;55.682;37.564;2022-08-11T13:21:48;2.88;;;2.30;;
25083;SDS011;13075;55.682;37.564;2022-08-11T13:24:14;4.78;;;2.40;;
25083;SDS011;13075;55.682;37.564;2022-08-11T13:26:42;5.65;;;3.03;;
25083;SDS011;13075;55.682;37.564;2022-08-11T13:29:09;5.38;;;2.90;;
25083;SDS011;13075;55.682;37.564;2022-08-11T13:31:36;3.03;;;2.25;;
25083;SDS011;13075;55.682;37.564;2022-08-11T13:34:03;5.25;;;2.50;;
25083;SDS011;13075;55.682;37.564;2022-08-11T13:36:32;4.18;;;2.08;;
25083;SDS011;13075;55.682;37.564;2022-08-11T13:38:58;5.65;;;2.50;;
25083;SDS011;13075;55.682;37.564;2022-08-11T13:41:26;5.40;;;2.08;;
25083;SDS011;13075;55.682;37.564;2022-08-11T13:44:03;4.55;;;2.90;;
25083;SDS011;13075;55.682;37.564;2022-08-11T13:46:31;3.15;;;2.85;;
25083;SDS011;13075;55.682;37.564;2022-08-11T13:48:58;11.52;;;3.97;;
25083;SDS011;13075;55.682;37.564;2022-08-11T13:51:24;4.03;;;2.60;;
25083;SDS011;13075;55.682;37.564;2022-08-11T13:54:16;5.03;;;2.40;;
25083;SDS011;13075;55.682;37.564;2022-08-11T13:59:11;7.60;;;2.28;;
25083;SDS011;13075;55.682;37.564;2022-08-11T14:01:42;2.15;;;1.92;;
25083;SDS011;13075;55.682;37.564;2022-08-11T14:04:15;4.90;;;2.67;;
25083;SDS011;13075;55.682;37.564;2022-08-11T14:06:53;3.65;;;2.45;;
25083;SDS011;13075;55.682;37.564;2022-08-11T14:09:22;4.25;;;2.08;;
25083;SDS011;13075;55.682;37.564;2022-08-11T14:11:52;6.90;;;2.70;;
25083;SDS011;13075;55.682;37.564;2022-08-11T14:14:41;6.70;;;2.78;;
25083;SDS011;13075;55.682;37.564;2022-08-11T14:17:11;2.63;;;2.08;;
25083;SDS011;13075;55.682;37.564;2022-08-11T14:19:40;5.50;;;2.45;;
25083;SDS011;13075;55.682;37.564;2022-08-11T14:22:08;2.75;;;2.20;;
25083;SDS011;13075;55.682;37.564;2022-08-11T14:24:39;7.32;;;2.63;;
25083;SDS011;13075;55.682;37.564;2022-08-11T14:27:06;4.85;;;4.05;;
25083;SDS011;13075;55.682;37.564;2022-08-11T14:29:34;5.32;;;3.25;;
25083;SDS011;13075;55.682;37.564;2022-08-11T14:32:07;5.53;;;2.50;;
25083;SDS011;13075;55.682;37.564;2022-08-11T14:34:35;6.10;;;2.80;;
25083;SDS011;13075;55.682;37.564;2022-08-11T14:37:17;6.68;;;2.60;;
25083;SDS011;13075;55.682;37.564;2022-08-11T14:39:47;6.07;;;2.58;;
25083;SDS011;13075;55.682;37.564;2022-08-11T14:42:18;5.32;;;3.45;;
25083;SDS011;13075;55.682;37.564;2022-08-11T14:45:16;4.93;;;2.55;;
25083;SDS011;13075;55.682;37.564;2022-08-11T14:48:02;5.28;;;2.53;;
25083;SDS011;13075;55.682;37.564;2022-08-11T14:50:33;4.97;;;2.03;;
25083;SDS011;13075;55.682;37.564;2022-08-11T14:52:59;3.80;;;2.30;;
25083;SDS011;13075;55.682;37.564;2022-08-11T14:55:29;7.20;;;2.72;;
25083;SDS011;13075;55.682;37.564;2022-08-11T14:58:18;4.90;;;2.30;;
25083;SDS011;13075;55.682;37.564;2022-08-11T15:00:49;8.30;;;4.85;;
25083;SDS011;13075;55.682;37.564;2022-08-11T15:03:17;4.47;;;2.28;;
25083;SDS011;13075;55.682;37.564;2022-08-11T15:05:52;4.32;;;2.30;;
25083;SDS011;13075;55.682;37.564;2022-08-11T15:08:20;10.95;;;3.15;;
25083;SDS011;13075;55.682;37.564;2022-08-11T15:11:07;4.30;;;3.15;;
25083;SDS011;13075;55.682;37.564;2022-08-11T15:13:54;3.63;;;2.30;;
25083;SDS011;13075;55.682;37.564;2022-08-11T15:16:21;3.67;;;2.38;;
25083;SDS011;13075;55.682;37.564;2022-08-11T15:19:07;3.78;;;2.28;;
25083;SDS011;13075;55.682;37.564;2022-08-11T15:21:34;2.83;;;2.30;;
25083;SDS011;13075;55.682;37.564;2022-08-11T15:24:18;12.10;;;2.53;;
25083;SDS011;13075;55.682;37.564;2022-08-11T15:26:43;2.17;;;1.92;;
25083;SDS011;13075;55.682;37.564;2022-08-11T15:29:30;9.27;;;3.22;;
25083;SDS011;13075;55.682;37.564;2022-08-11T15:32:16;6.95;;;3.15;;
25083;SDS011;13075;55.682;37.564;2022-08-11T15:34:59;4.57;;;3.40;;
25083;SDS011;13075;55.682;37.564;2022-08-11T15:37:46;2.92;;;2.20;;
25083;SDS011;13075;55.682;37.564;2022-08-11T15:40:24;5.60;;;2.45;;
25083;SDS011;13075;55.682;37.564;2022-08-11T15:43:20;7.95;;;2.40;;
25083;SDS011;13075;55.682;37.564;2022-08-11T15:46:11;5.13;;;2.42;;
25083;SDS011;13075;55.682;37.564;2022-08-11T15:48:50;6.72;;;1.98;;
25083;SDS011;13075;55.682;37.564;2022-08-11T15:51:41;3.50;;;2.47;;
25083;SDS011;13075;55.682;37.564;2022-08-11T15:54:25;4.22;;;2.33;;
25083;SDS011;13075;55.682;37.564;2022-08-11T15:56:55;6.88;;;1.95;;
25083;SDS011;13075;55.682;37.564;2022-08-11T15:59:23;4.65;;;2.33;;
25083;SDS011;13075;55.682;37.564;2022-08-11T16:02:16;4.13;;;2.83;;
25083;SDS011;13075;55.682;37.564;2022-08-11T16:05:08;6.72;;;2.95;;
25083;SDS011;13075;55.682;37.564;2022-08-11T16:07:37;8.77;;;3.03;;
25083;SDS011;13075;55.682;37.564;2022-08-11T16:10:12;8.90;;;4.93;;
25083;SDS011;13075;55.682;37.564;2022-08-11T16:12:45;7.22;;;3.33;;
25083;SDS011;13075;55.682;37.564;2022-08-11T16:15:34;9.15;;;2.42;;
25083;SDS011;13075;55.682;37.564;2022-08-11T16:18:24;2.90;;;2.10;;
25083;SDS011;13075;55.682;37.564;2022-08-11T16:21:15;5.13;;;2.60;;
25083;SDS011;13075;55.682;37.564;2022-08-11T16:23:44;9.85;;;3.05;;
25083;SDS011;13075;55.682;37.564;2022-08-11T16:26:12;6.38;;;4.00;;
25083;SDS011;13075;55.682;37.564;2022-08-11T16:28:42;8.65;;;3.80;;
25083;SDS011;13075;55.682;37.564;2022-08-11T16:31:09;6.18;;;2.78;;
25083;SDS011;13075;55.682;37.564;2022-08-11T16:33:37;5.05;;;4.43;;
25083;SDS011;13075;55.682;37.564;2022-08-11T16:36:09;5.68;;;4.38;;
25083;SDS011;13075;55.682;37.564;2022-08-11T16:38:54;10.90;;;3.67;;
25083;SDS011;13075;55.682;37.564;2022-08-11T16:41:22;4.65;;;3.00;;
25083;SDS011;13075;55.682;37.564;2022-08-11T16:44:09;4.93;;;3.97;;
25083;SDS011;13075;55.682;37.564;2022-08-11T16:46:55;8.18;;;3.88;;
25083;SDS011;13075;55.682;37.564;2022-08-11T16:49:32;5.38;;;3.80;;
25083;SDS011;13075;55.682;37.564;2022-08-11T16:52:00;12.07;;;3.03;;
25083;SDS011;13075;55.682;37.564;2022-08-11T16:54:32;7.43;;;3.88;;
25083;SDS011;13075;55.682;37.564;2022-08-11T16:57:01;7.07;;;3.10;;
25083;SDS011;13075;55.682;37.564;2022-08-11T16:59:46;11.23;;;3.85;;
25083;SDS011;13075;55.682;37.564;2022-08-11T17:02:17;5.85;;;3.15;;
25083;SDS011;13075;55.682;37.564;2022-08-11T17:05:25;6.60;;;3.25;;
25083;SDS011;13075;55.682;37.564;2022-08-11T17:08:09;11.30;;;4.10;;
25083;SDS011;13075;55.682;37.564;2022-08-11T17:13:47;9.40;;;3.90;;
25083;SDS011;13075;55.682;37.564;2022-08-11T17:16:21;12.77;;;3.90;;
25083;SDS011;13075;55.682;37.564;2022-08-11T17:21:27;11.43;;;5.50;;
25083;SDS011;13075;55.682;37.564;2022-08-11T17:23:58;21.75;;;6.88;;
25083;SDS011;13075;55.682;37.564;2022-08-11T17:26:38;15.77;;;6.53;;
25083;SDS011;13075;55.682;37.564;2022-08-11T17:29:32;11.90;;;4.60;;
25083;SDS011;13075;55.682;37.564;2022-08-11T17:32:03;13.65;;;5.28;;
25083;SDS011;13075;55.682;37.564;2022-08-11T17:34:49;11.80;;;5.97;;
25083;SDS011;13075;55.682;37.564;2022-08-11T17:37:38;13.07;;;5.10;;
25083;SDS011;13075;55.682;37.564;2022-08-11T17:40:07;19.80;;;5.22;;
25083;SDS011;13075;55.682;37.564;2022-08-11T17:42:34;12.07;;;5.68;;
25083;SDS011;13075;55.682;37.564;2022-08-11T17:45:21;10.05;;;4.60;;
25083;SDS011;13075;55.682;37.564;2022-08-11T17:48:07;16.02;;;5.03;;
25083;SDS011;13075;55.682;37.564;2022-08-11T17:50:59;12.15;;;5.35;;
25083;SDS011;13075;55.682;37.564;2022-08-11T17:53:29;11.75;;;5.55;;
25083;SDS011;13075;55.682;37.564;2022-08-11T17:56:17;13.10;;;5.97;;
25083;SDS011;13075;55.682;37.564;2022-08-11T17:59:04;11.20;;;5.03;;
25083;SDS011;13075;55.682;37.564;2022-08-11T18:01:51;12.20;;;5.88;;
25083;SDS011;13075;55.682;37.564;2022-08-11T18:04:20;7.68;;;5.40;;
25083;SDS011;13075;55.682;37.564;2022-08-11T18:06:48;10.95;;;5.13;;
25083;SDS011;13075;55.682;37.564;2022-08-11T18:09:15;15.60;;;6.00;;
25083;SDS011;13075;55.682;37.564;2022-08-11T18:12:04;9.75;;;6.35;;
25083;SDS011;13075;55.682;37.564;2022-08-11T18:14:50;18.33;;;5.88;;
25083;SDS011;13075;55.682;37.564;2022-08-11T18:17:36;14.77;;;5.45;;
25083;SDS011;13075;55.682;37.564;2022-08-11T18:20:20;16.42;;;7.57;;
25083;SDS011;13075;55.682;37.564;2022-08-11T18:23:07;10.05;;;4.63;;
25083;SDS011;13075;55.682;37.564;2022-08-11T18:25:55;10.65;;;5.13;;
25083;SDS011;13075;55.682;37.564;2022-08-11T18:28:44;11.27;;;4.90;;
25083;SDS011;13075;55.682;37.564;2022-08-11T18:31:32;10.50;;;4.97;;
25083;SDS011;13075;55.682;37.564;2022-08-11T18:34:19;12.38;;;5.10;;
25083;SDS011;13075;55.682;37.564;2022-08-11T18:37:09;7.10;;;4.78;;
25083;SDS011;13075;55.682;37.564;2022-08-11T18:40:05;10.40;;;5.18;;
25083;SDS011;13075;55.682;37.564;2022-08-11T18:42:52;8.43;;;5.07;;
25083;SDS011;13075;55.682;37.564;2022-08-11T18:45:40;14.80;;;5.40;;
25083;SDS011;13075;55.682;37.564;2022-08-11T18:48:27;15.75;;;4.40;;
25083;SDS011;13075;55.682;37.564;2022-08-11T18:51:14;9.23;;;3.63;;
25083;SDS011;13075;55.682;37.564;2022-08-11T18:54:01;12.52;;;4.53;;
25083;SDS011;13075;55.682;37.564;2022-08-11T18:56:49;9.25;;;4.15;;
25083;SDS011;13075;55.682;37.564;2022-08-11T18:59:34;6.75;;;3.38;;
25083;SDS011;13075;55.682;37.564;2022-08-11T19:02:22;5.90;;;2.78;;
25083;SDS011;13075;55.682;37.564;2022-08-11T19:05:07;8.32;;;3.72;;
25083;SDS011;13075;55.682;37.564;2022-08-11T19:07:54;4.88;;;3.58;;
25083;SDS011;13075;55.682;37.564;2022-08-11T19:10:41;6.07;;;3.38;;
25083;SDS011;13075;55.682;37.564;2022-08-11T19:13:28;6.75;;;3.28;;
25083;SDS011;13075;55.682;37.564;2022-08-11T19:16:14;6.85;;;3.78;;
25083;SDS011;13075;55.682;37.564;2022-08-11T19:19:00;6.15;;;3.95;;
25083;SDS011;13075;55.682;37.564;2022-08-11T19:21:46;5.82;;;4.07;;
25083;SDS011;13075;55.682;37.564;2022-08-11T19:24:33;6.65;;;4.18;;
25083;SDS011;13075;55.682;37.564;2022-08-11T19:27:22;5.65;;;3.83;;
25083;SDS011;13075;55.682;37.564;2022-08-11T19:30:09;7.28;;;3.40;;
25083;SDS011;13075;55.682;37.564;2022-08-11T19:32:54;7.32;;;3.53;;
25083;SDS011;13075;55.682;37.564;2022-08-11T19:35:40;12.48;;;4.10;;
25083;SDS011;13075;55.682;37.564;2022-08-11T19:38:25;7.97;;;4.70;;
25083;SDS011;13075;55.682;37.564;2022-08-11T19:41:11;8.35;;;4.00;;
25083;SDS011;13075;55.682;37.564;2022-08-11T19:43:57;7.90;;;5.57;;
25083;SDS011;13075;55.682;37.564;2022-08-11T19:46:43;7.53;;;4.22;;
25083;SDS011;13075;55.682;37.564;2022-08-11T19:49:28;4.65;;;3.70;;
25083;SDS011;13075;55.682;37.564;2022-08-11T19:52:14;8.45;;;5.35;;